createdAt,value
2023-05-09T00:00:23.504Z,2.70
2023-05-09T00:03:12.773Z,2.70
2023-05-09T00:06:00.304Z,2.70
2023-05-09T00:08:47.735Z,2.70
2023-05-09T00:11:36.855Z,2.80
2023-05-09T00:14:24.937Z,2.80
2023-05-09T00:17:15.858Z,2.80
2023-05-09T00:20:05.223Z,2.80
2023-05-09T00:22:53.060Z,2.80
2023-05-09T00:25:40.703Z,2.80
2023-05-09T00:28:29.721Z,2.80
2023-05-09T00:31:17.514Z,2.80
2023-05-09T00:34:05.279Z,2.80
2023-05-09T00:36:53.032Z,2.80
2023-05-09T00:39:40.360Z,2.70
2023-05-09T00:42:28.056Z,2.70
2023-05-09T00:45:17.072Z,2.70
2023-05-09T00:48:05.032Z,2.60
2023-05-09T00:50:53.351Z,2.60
2023-05-09T00:53:41.712Z,2.60
2023-05-09T00:56:29.525Z,2.60
2023-05-09T00:59:18.116Z,2.60
2023-05-09T01:02:07.088Z,2.60
2023-05-09T01:04:55.182Z,2.60
2023-05-09T01:07:51.134Z,2.60
2023-05-09T01:10:56.525Z,2.60
2023-05-09T01:13:53.677Z,2.50
2023-05-09T01:16:47.092Z,2.60
2023-05-09T01:19:58.405Z,2.60
2023-05-09T01:22:53.800Z,2.50
2023-05-09T01:25:56.045Z,2.50
2023-05-09T01:29:06.792Z,2.40
2023-05-09T01:31:57.911Z,2.40
2023-05-09T01:34:46.474Z,2.30
2023-05-09T01:37:36.822Z,2.30
2023-05-09T01:40:26.958Z,2.30
2023-05-09T01:43:18.252Z,2.30
2023-05-09T01:46:06.712Z,2.30
2023-05-09T01:48:57.087Z,2.30
2023-05-09T01:51:46.083Z,2.20
2023-05-09T01:54:34.860Z,2.20
2023-05-09T01:57:24.270Z,2.20
2023-05-09T02:00:14.400Z,2.20
2023-05-09T02:03:03.188Z,2.20
2023-05-09T02:05:53.349Z,2.10
2023-05-09T02:08:41.973Z,2.10
2023-05-09T02:11:29.364Z,2.10
2023-05-09T02:14:16.994Z,2.10
2023-05-09T02:17:07.133Z,2.10
2023-05-09T02:19:54.540Z,2.10
2023-05-09T02:22:45.125Z,2.10
2023-05-09T02:25:34.296Z,2.10
2023-05-09T02:28:23.723Z,2.00
2023-05-09T02:31:13.161Z,2.00
2023-05-09T02:34:01.338Z,1.90
2023-05-09T02:36:48.910Z,1.90
2023-05-09T02:39:38.417Z,1.80
2023-05-09T02:42:30.075Z,1.80
2023-05-09T02:45:18.178Z,1.80
2023-05-09T02:48:08.692Z,1.80
2023-05-09T02:50:57.822Z,1.80
2023-05-09T02:53:45.352Z,1.80
2023-05-09T02:56:34.443Z,1.80
2023-05-09T02:59:22.318Z,1.80
2023-05-09T03:02:10.270Z,1.70
2023-05-09T03:04:57.767Z,1.70
2023-05-09T03:07:46.178Z,1.70
2023-05-09T03:10:33.675Z,1.70
2023-05-09T03:13:22.450Z,1.60
2023-05-09T03:16:10.439Z,1.60
2023-05-09T03:18:58.174Z,1.60
2023-05-09T03:21:45.743Z,1.60
2023-05-09T03:24:33.555Z,1.60
2023-05-09T03:27:21.174Z,1.70
2023-05-09T03:30:12.983Z,1.70
2023-05-09T03:33:01.800Z,1.80
2023-05-09T03:35:49.407Z,1.80
2023-05-09T03:38:36.884Z,1.80
2023-05-09T03:41:24.348Z,1.90
2023-05-09T03:44:12.076Z,1.90
2023-05-09T03:47:01.319Z,2.00
2023-05-09T03:49:55.189Z,2.10
2023-05-09T03:52:44.169Z,2.10
2023-05-09T03:55:34.189Z,2.20
2023-05-09T03:58:21.936Z,2.40
2023-05-09T04:01:09.681Z,2.50
2023-05-09T04:03:58.906Z,2.60
2023-05-09T04:06:48.205Z,2.70
2023-05-09T04:09:38.120Z,2.80
2023-05-09T04:12:26.212Z,3.00
2023-05-09T04:15:14.275Z,3.10
2023-05-09T04:18:02.619Z,3.20
2023-05-09T04:20:51.335Z,3.30
2023-05-09T04:23:39.849Z,3.50
2023-05-09T04:26:28.293Z,3.70
2023-05-09T04:29:17.234Z,3.90
2023-05-09T04:32:10.532Z,4.00
2023-05-09T04:34:58.979Z,4.20
2023-05-09T04:37:53.212Z,4.30
2023-05-09T04:40:41.216Z,4.50
2023-05-09T04:43:29.956Z,4.70
2023-05-09T04:46:18.043Z,4.80
2023-05-09T04:49:06.025Z,5.00
2023-05-09T04:51:53.792Z,5.20
2023-05-09T04:54:42.658Z,5.40
2023-05-09T04:57:33.223Z,5.50
2023-05-09T05:00:22.920Z,5.70
2023-05-09T05:03:10.463Z,5.90
2023-05-09T05:05:58.060Z,6.10
2023-05-09T05:08:45.633Z,6.20
2023-05-09T05:11:34.684Z,6.40
2023-05-09T05:14:24.541Z,6.60
2023-05-09T05:17:12.215Z,6.80
2023-05-09T05:20:00.305Z,7.00
2023-05-09T05:22:50.372Z,7.10
2023-05-09T05:25:38.192Z,7.30
2023-05-09T05:28:27.573Z,7.50
2023-05-09T05:31:15.296Z,7.70
2023-05-09T05:34:02.873Z,7.80
2023-05-09T05:36:51.910Z,8.00
2023-05-09T05:39:39.501Z,8.20
2023-05-09T05:42:27.149Z,8.40
2023-05-09T05:45:17.123Z,8.50
2023-05-09T05:48:09.053Z,8.60
2023-05-09T05:50:56.900Z,8.80
2023-05-09T05:53:47.746Z,8.90
2023-05-09T05:56:35.630Z,9.00
2023-05-09T05:59:23.247Z,9.10
2023-05-09T06:02:12.136Z,9.20
2023-05-09T06:05:00.783Z,9.30
2023-05-09T06:07:51.064Z,9.50
2023-05-09T06:10:38.497Z,9.60
2023-05-09T06:13:26.128Z,9.80
2023-05-09T06:16:20.721Z,9.90
2023-05-09T06:19:13.146Z,10.10
2023-05-09T06:22:00.933Z,10.30
2023-05-09T06:24:48.582Z,10.50
2023-05-09T06:27:36.223Z,10.70
2023-05-09T06:30:26.781Z,10.80
2023-05-09T06:33:14.858Z,10.90
2023-05-09T06:36:04.236Z,11.10
2023-05-09T06:38:51.725Z,11.30
2023-05-09T06:41:39.160Z,11.50
2023-05-09T06:44:26.886Z,11.60
2023-05-09T06:47:14.409Z,11.70
2023-05-09T06:50:01.815Z,11.90
2023-05-09T06:52:51.134Z,12.00
2023-05-09T06:55:38.856Z,12.10
2023-05-09T06:58:27.549Z,12.20
2023-05-09T07:01:15.272Z,12.20
2023-05-09T07:04:02.768Z,12.30
2023-05-09T07:06:50.285Z,12.50
2023-05-09T07:09:39.123Z,12.70
2023-05-09T07:12:26.807Z,12.80
2023-05-09T07:15:16.861Z,12.90
2023-05-09T07:18:10.486Z,13.00
2023-05-09T07:20:57.778Z,13.20
2023-05-09T07:23:45.232Z,13.40
2023-05-09T07:26:34.103Z,13.50
2023-05-09T07:29:21.736Z,13.70
2023-05-09T07:32:09.351Z,13.80
2023-05-09T07:34:57.031Z,13.90
2023-05-09T07:37:44.753Z,14.00
2023-05-09T07:40:32.431Z,14.20
2023-05-09T07:43:21.615Z,14.30
2023-05-09T07:46:09.430Z,14.40
2023-05-09T07:48:57.403Z,14.50
2023-05-09T07:51:44.696Z,14.60
2023-05-09T07:54:32.214Z,14.70
2023-05-09T07:57:20.302Z,14.80
2023-05-09T08:00:10.779Z,15.00
2023-05-09T08:03:01.332Z,15.10
2023-05-09T08:05:49.094Z,15.30
2023-05-09T08:08:38.368Z,15.50
2023-05-09T08:11:26.699Z,15.60
2023-05-09T08:14:15.618Z,15.80
2023-05-09T08:17:04.647Z,15.90
2023-05-09T08:19:52.099Z,16.00
2023-05-09T08:22:40.447Z,16.10
2023-05-09T08:25:29.643Z,16.10
2023-05-09T08:28:18.012Z,16.10
2023-05-09T08:31:06.063Z,16.10
2023-05-09T08:33:55.104Z,16.30
2023-05-09T08:36:45.562Z,16.30
2023-05-09T08:39:34.974Z,16.30
2023-05-09T08:42:26.217Z,16.30
2023-05-09T08:45:15.989Z,16.50
2023-05-09T08:48:04.366Z,16.80
2023-05-09T08:50:54.062Z,17.00
2023-05-09T08:53:41.754Z,17.30
2023-05-09T08:56:29.785Z,17.40
2023-05-09T08:59:18.749Z,17.40
2023-05-09T09:02:08.190Z,17.30
2023-05-09T09:04:56.668Z,17.30
2023-05-09T09:07:47.244Z,17.60
2023-05-09T09:10:35.503Z,17.80
2023-05-09T09:13:24.286Z,17.80
2023-05-09T09:16:15.630Z,17.80
2023-05-09T09:19:04.101Z,17.90
2023-05-09T09:21:55.095Z,18.10
2023-05-09T09:24:43.737Z,18.10
2023-05-09T09:27:31.152Z,18.00
2023-05-09T09:30:20.188Z,18.00
2023-05-09T09:33:08.407Z,18.20
2023-05-09T09:35:57.466Z,18.30
2023-05-09T09:38:45.071Z,18.50
2023-05-09T09:41:35.314Z,18.80
2023-05-09T09:44:23.886Z,18.90
2023-05-09T09:47:12.346Z,18.90
2023-05-09T09:49:59.852Z,19.10
2023-05-09T09:52:51.812Z,19.20
2023-05-09T09:55:50.131Z,19.50
2023-05-09T09:58:38.979Z,19.90
2023-05-09T10:01:26.700Z,20.10
2023-05-09T10:04:17.621Z,20.00
2023-05-09T10:07:07.516Z,20.00
2023-05-09T10:09:55.156Z,20.00
2023-05-09T10:12:45.441Z,20.10
2023-05-09T10:15:49.390Z,20.50
2023-05-09T10:18:43.434Z,20.60
2023-05-09T10:21:31.848Z,20.40
2023-05-09T10:24:22.693Z,20.30
2023-05-09T10:27:13.135Z,20.20
2023-05-09T10:30:06.053Z,20.10
2023-05-09T10:32:59.426Z,20.00
2023-05-09T10:35:48.403Z,20.20
2023-05-09T10:38:36.891Z,20.60
2023-05-09T10:41:25.910Z,20.90
2023-05-09T10:44:13.387Z,20.90
2023-05-09T10:47:01.820Z,20.90
2023-05-09T10:49:50.949Z,21.10
2023-05-09T10:53:05.962Z,21.20
2023-05-09T10:55:56.056Z,21.30
2023-05-09T10:58:43.715Z,21.20
2023-05-09T11:01:35.186Z,21.30
2023-05-09T11:04:23.029Z,21.20
2023-05-09T11:07:25.606Z,21.20
2023-05-09T11:10:17.807Z,21.40
2023-05-09T11:13:05.840Z,21.50
2023-05-09T11:16:09.190Z,21.70
2023-05-09T11:18:56.876Z,21.70
2023-05-09T11:22:01.957Z,21.70
2023-05-09T11:24:53.949Z,21.80
2023-05-09T11:27:44.460Z,21.80
2023-05-09T11:30:39.696Z,21.70
2023-05-09T11:33:30.385Z,21.60
2023-05-09T11:36:20.222Z,21.80
2023-05-09T11:39:09.312Z,22.20
2023-05-09T11:41:58.040Z,22.50
2023-05-09T11:44:48.607Z,22.80
2023-05-09T11:47:38.072Z,22.70
2023-05-09T11:50:26.377Z,22.30
2023-05-09T11:53:14.129Z,22.10
2023-05-09T11:56:04.797Z,22.30
2023-05-09T11:58:54.153Z,22.40
2023-05-09T12:01:41.769Z,22.50
2023-05-09T12:04:31.697Z,22.40
2023-05-09T12:07:19.425Z,22.40
2023-05-09T12:10:08.573Z,22.60
2023-05-09T12:12:57.155Z,22.90
2023-05-09T12:15:45.868Z,22.90
2023-05-09T12:18:33.638Z,23.30
2023-05-09T12:21:22.313Z,23.40
2023-05-09T12:24:10.116Z,23.40
2023-05-09T12:26:59.541Z,23.40
2023-05-09T12:29:48.309Z,23.50
2023-05-09T12:32:39.685Z,23.40
2023-05-09T12:35:27.661Z,23.50
2023-05-09T12:38:16.341Z,23.70
2023-05-09T12:41:05.020Z,23.80
2023-05-09T12:43:52.638Z,23.80
2023-05-09T12:46:40.261Z,23.80
2023-05-09T12:49:29.817Z,23.40
2023-05-09T12:52:20.426Z,23.00
2023-05-09T12:55:09.100Z,23.10
2023-05-09T12:58:01.969Z,23.30
2023-05-09T13:00:49.404Z,23.50
2023-05-09T13:03:38.837Z,23.60
2023-05-09T13:06:27.730Z,23.60
2023-05-09T13:09:16.066Z,23.80
2023-05-09T13:12:04.929Z,23.80
2023-05-09T13:14:52.749Z,24.10
2023-05-09T13:17:40.192Z,24.10
2023-05-09T13:20:27.824Z,23.90
2023-05-09T13:23:16.636Z,23.60
2023-05-09T13:26:04.252Z,23.50
2023-05-09T13:28:51.778Z,23.60
2023-05-09T13:31:39.703Z,23.70
2023-05-09T13:34:27.324Z,23.90
2023-05-09T13:37:14.744Z,23.90
2023-05-09T13:40:04.340Z,24.10
2023-05-09T13:42:51.889Z,24.00
2023-05-09T13:45:39.576Z,23.90
2023-05-09T13:48:26.999Z,23.80
2023-05-09T13:51:15.056Z,23.90
2023-05-09T13:54:03.724Z,24.00
2023-05-09T13:56:52.764Z,24.20
2023-05-09T13:59:41.246Z,24.30
2023-05-09T14:02:28.947Z,24.40
2023-05-09T14:05:16.950Z,24.30
2023-05-09T14:08:04.595Z,24.60
2023-05-09T14:10:51.938Z,24.60
2023-05-09T14:13:41.095Z,24.30
2023-05-09T14:16:28.993Z,24.40
2023-05-09T14:19:17.178Z,24.60
2023-05-09T14:22:04.562Z,24.90
2023-05-09T14:24:52.273Z,24.80
2023-05-09T14:27:39.777Z,24.70
2023-05-09T14:30:28.827Z,24.40
2023-05-09T14:33:16.449Z,24.60
2023-05-09T14:36:04.407Z,24.60
2023-05-09T14:38:51.747Z,24.60
2023-05-09T14:41:39.300Z,24.50
2023-05-09T14:44:27.171Z,24.50
2023-05-09T14:47:17.068Z,24.40
2023-05-09T14:50:05.347Z,24.20
2023-05-09T14:52:53.408Z,24.10
2023-05-09T14:55:41.133Z,24.20
2023-05-09T14:58:31.452Z,24.30
2023-05-09T15:01:23.593Z,24.20
2023-05-09T15:04:12.694Z,24.50
2023-05-09T15:07:00.382Z,24.50
2023-05-09T15:09:48.083Z,24.50
2023-05-09T15:12:35.886Z,24.40
2023-05-09T15:15:24.616Z,24.50
2023-05-09T15:18:13.382Z,24.40
2023-05-09T15:21:02.522Z,24.30
2023-05-09T15:23:50.582Z,24.10
2023-05-09T15:26:37.998Z,23.80
2023-05-09T15:29:25.476Z,23.50
2023-05-09T15:32:12.851Z,23.30
2023-05-09T15:35:00.145Z,23.30
2023-05-09T15:37:49.075Z,23.60
2023-05-09T15:40:36.583Z,23.70
2023-05-09T15:43:24.528Z,23.70
2023-05-09T15:46:12.212Z,23.50
2023-05-09T15:48:59.513Z,23.50
2023-05-09T15:51:46.783Z,23.90
2023-05-09T15:54:36.100Z,24.00
2023-05-09T15:57:24.917Z,24.10
2023-05-09T16:00:16.366Z,24.10
2023-05-09T16:03:04.825Z,24.00
2023-05-09T16:05:52.225Z,24.00
2023-05-09T16:08:39.953Z,23.80
2023-05-09T16:11:28.793Z,24.10
2023-05-09T16:14:16.568Z,24.30
2023-05-09T16:17:04.679Z,24.20
2023-05-09T16:19:52.174Z,24.30
2023-05-09T16:22:39.562Z,24.20
2023-05-09T16:25:26.974Z,23.80
2023-05-09T16:28:15.915Z,23.50
2023-05-09T16:31:04.993Z,23.40
2023-05-09T16:33:52.562Z,23.20
2023-05-09T16:36:40.020Z,23.20
2023-05-09T16:39:28.090Z,23.00
2023-05-09T16:42:15.716Z,22.90
2023-05-09T16:45:04.625Z,22.80
2023-05-09T16:47:53.363Z,22.70
2023-05-09T16:50:43.310Z,22.80
2023-05-09T16:53:30.833Z,22.90
2023-05-09T16:56:18.245Z,23.00
2023-05-09T16:59:06.028Z,23.00
2023-05-09T17:01:57.612Z,23.00
2023-05-09T17:04:45.458Z,22.90
2023-05-09T17:07:33.487Z,22.70
2023-05-09T17:10:20.934Z,22.50
2023-05-09T17:13:08.867Z,22.50
2023-05-09T17:15:57.002Z,22.30
2023-05-09T17:18:47.703Z,22.00
2023-05-09T17:21:35.082Z,21.50
2023-05-09T17:24:22.660Z,20.80
2023-05-09T17:27:11.455Z,19.90
2023-05-09T17:29:59.141Z,19.10
2023-05-09T17:32:46.839Z,18.60
2023-05-09T17:35:35.735Z,18.30
2023-05-09T17:38:23.283Z,18.20
2023-05-09T17:41:10.961Z,18.00
2023-05-09T17:43:58.720Z,17.70
2023-05-09T17:46:46.155Z,17.50
2023-05-09T17:49:33.762Z,17.20
2023-05-09T17:52:22.946Z,16.80
2023-05-09T17:55:11.107Z,16.50
2023-05-09T17:57:58.666Z,16.20
2023-05-09T18:00:46.685Z,15.90
2023-05-09T18:03:34.378Z,15.60
2023-05-09T18:06:21.851Z,15.40
2023-05-09T18:09:10.838Z,15.10
2023-05-09T18:11:59.140Z,14.80
2023-05-09T18:14:47.771Z,14.60
2023-05-09T18:17:35.321Z,14.40
2023-05-09T18:20:22.969Z,14.20
2023-05-09T18:23:10.681Z,14.00
2023-05-09T18:25:59.656Z,13.90
2023-05-09T18:28:47.360Z,13.70
2023-05-09T18:31:38.741Z,13.60
2023-05-09T18:34:28.135Z,13.50
2023-05-09T18:37:16.916Z,13.40
2023-05-09T18:40:05.391Z,13.30
2023-05-09T18:42:54.287Z,13.20
2023-05-09T18:45:44.986Z,13.10
2023-05-09T18:48:33.584Z,13.00
2023-05-09T18:51:21.585Z,12.90
2023-05-09T18:54:09.680Z,12.90
2023-05-09T18:56:57.196Z,12.80
2023-05-09T18:59:46.090Z,12.80
2023-05-09T19:02:33.940Z,12.70
2023-05-09T19:05:21.682Z,12.60
2023-05-09T19:08:09.262Z,12.60
2023-05-09T19:10:56.990Z,12.50
2023-05-09T19:13:48.640Z,12.50
2023-05-09T19:16:37.797Z,12.40
2023-05-09T19:19:25.560Z,12.40
2023-05-09T19:22:13.100Z,12.40
2023-05-09T19:25:01.122Z,12.30
2023-05-09T19:27:49.047Z,12.20
2023-05-09T19:30:36.441Z,12.20
2023-05-09T19:33:26.173Z,12.10
2023-05-09T19:36:14.017Z,12.00
2023-05-09T19:39:01.771Z,11.90
2023-05-09T19:41:49.278Z,11.80
2023-05-09T19:44:36.678Z,11.80
2023-05-09T19:47:24.124Z,11.80
2023-05-09T19:50:13.766Z,11.80
2023-05-09T19:53:01.610Z,11.80
2023-05-09T19:55:49.101Z,11.80
2023-05-09T19:58:36.624Z,11.80
2023-05-09T20:01:25.190Z,11.70
2023-05-09T20:04:12.568Z,11.60
2023-05-09T20:10:06.952Z,11.50
2023-05-09T20:12:56.495Z,11.40
2023-05-09T20:15:44.294Z,11.40
2023-05-09T20:18:33.563Z,11.40
2023-05-09T20:21:21.301Z,11.40
2023-05-09T20:24:11.787Z,11.30
2023-05-09T20:26:59.502Z,11.30
2023-05-09T20:29:47.175Z,11.20
2023-05-09T20:32:35.123Z,11.10
2023-05-09T20:35:23.256Z,11.00
2023-05-09T20:38:11.142Z,11.00
2023-05-09T20:40:59.756Z,10.90
2023-05-09T20:43:47.298Z,10.90
2023-05-09T20:46:35.412Z,10.90
2023-05-09T20:49:23.909Z,10.80
2023-05-09T20:52:11.563Z,10.80
2023-05-09T20:54:59.401Z,10.70
2023-05-09T20:57:48.814Z,10.70
2023-05-09T21:00:36.281Z,10.60
2023-05-09T21:03:24.794Z,10.60
2023-05-09T21:06:12.119Z,10.50
2023-05-09T21:08:59.686Z,10.50
2023-05-09T21:11:47.180Z,10.40
2023-05-09T21:14:35.864Z,10.30
2023-05-09T21:17:23.421Z,10.30
2023-05-09T21:20:11.582Z,10.20
2023-05-09T21:22:58.940Z,10.20
2023-05-09T21:25:46.550Z,10.10
2023-05-09T21:28:34.075Z,10.10
2023-05-09T21:31:22.905Z,10.00
2023-05-09T21:34:10.825Z,10.00
2023-05-09T21:36:58.465Z,9.90
2023-05-09T21:39:46.218Z,9.80
2023-05-09T21:42:35.433Z,9.70
2023-05-09T21:45:23.318Z,9.70
2023-05-09T21:48:12.551Z,9.60
2023-05-09T21:51:02.734Z,9.60
2023-05-09T21:53:50.018Z,9.50
2023-05-09T21:56:37.925Z,9.50
2023-05-09T21:59:26.480Z,9.40
2023-05-09T22:02:14.482Z,9.40
2023-05-09T22:05:03.609Z,9.30
2023-05-09T22:07:51.652Z,9.30
2023-05-09T22:10:39.325Z,9.30
2023-05-09T22:13:28.847Z,9.30
2023-05-09T22:16:17.598Z,9.20
2023-05-09T22:19:05.408Z,9.10
2023-05-09T22:21:54.510Z,9.10
2023-05-09T22:24:42.609Z,9.10
2023-05-09T22:27:29.966Z,9.00
2023-05-09T22:30:17.923Z,8.90
2023-05-09T22:33:05.663Z,8.80
2023-05-09T22:35:53.872Z,8.70
2023-05-09T22:38:43.470Z,8.60
2023-05-09T22:41:30.815Z,8.50
2023-05-09T22:44:18.515Z,8.50
2023-05-09T22:47:08.157Z,8.40
2023-05-09T22:49:55.955Z,8.30
2023-05-09T22:52:43.381Z,8.10
2023-05-09T22:55:32.160Z,8.10
2023-05-09T22:58:19.888Z,8.00
2023-05-09T23:01:07.762Z,8.00
2023-05-09T23:03:55.413Z,8.00
2023-05-09T23:06:42.753Z,7.90
2023-05-09T23:09:30.373Z,8.00
2023-05-09T23:12:19.666Z,8.00
2023-05-09T23:15:08.900Z,8.00
2023-05-09T23:17:56.569Z,7.90
2023-05-09T23:20:44.115Z,7.90
2023-05-09T23:23:31.592Z,7.90
2023-05-09T23:26:18.828Z,7.80
2023-05-09T23:29:07.758Z,7.70
2023-05-09T23:31:55.292Z,7.60
2023-05-09T23:34:42.988Z,7.50
2023-05-09T23:37:30.450Z,7.30
2023-05-09T23:40:18.307Z,7.20
2023-05-09T23:43:05.998Z,7.10
2023-05-09T23:45:56.701Z,7.10
2023-05-09T23:48:44.118Z,7.00
2023-05-09T23:51:31.948Z,7.00
2023-05-09T23:54:21.415Z,6.90
2023-05-09T23:57:08.954Z,6.90
2023-05-09T23:59:56.677Z,6.80
